Terminal Aerodrome Forecast
Issued by NWS Memphis, TN

Home | Current Version | Previous Version | Text Only | Print | Product List | Glossary On
Versions: 1 2 3 4 5 6 7 8 9 10 11 12 13 14 15 16 17 18 19 20 21 22 23 24 25 26 27 28 29
000
FTUS44 KMEG 232325
TAFMEM
TAF
KMEM 232325Z 2400/2424 VRB03KT P6SM VCTS SCT040CB
      TEMPO 2400/2401 VRB10G15KT 5SM -TSRA FEW025 BKN040CB
     FM240130 20004KT P6SM VCSH SCT050 BKN100
     FM240600 VRB03KT P6SM BKN200
      TEMPO 2410/2413 6SM HZ
     FM241600 23006KT P6SM SCT040=

USA.gov is the U.S. government's official web portal to all federal, state and local government web resources and services.